sensor_id;sensor_type;location;lat;lon;timestamp;temperature;humidity
46652;DHT22;32377;52.182;5.398;2022-07-22T00:00:21;16.70;99.90
46652;DHT22;32377;52.182;5.398;2022-07-22T00:02:47;16.70;99.90
46652;DHT22;32377;52.182;5.398;2022-07-22T00:05:13;16.70;99.90
46652;DHT22;32377;52.182;5.398;2022-07-22T00:07:39;16.70;99.90
46652;DHT22;32377;52.182;5.398;2022-07-22T00:10:07;16.70;99.90
46652;DHT22;32377;52.182;5.398;2022-07-22T00:12:33;16.70;99.90
46652;DHT22;32377;52.182;5.398;2022-07-22T00:14:58;16.80;99.90
46652;DHT22;32377;52.182;5.398;2022-07-22T00:17:24;16.70;99.90
46652;DHT22;32377;52.182;5.398;2022-07-22T00:19:49;16.70;99.90
46652;DHT22;32377;52.182;5.398;2022-07-22T00:22:15;16.70;99.90
46652;DHT22;32377;52.182;5.398;2022-07-22T00:24:41;16.80;99.90
46652;DHT22;32377;52.182;5.398;2022-07-22T00:27:06;16.70;99.90
46652;DHT22;32377;52.182;5.398;2022-07-22T00:29:32;16.70;99.90
46652;DHT22;32377;52.182;5.398;2022-07-22T00:31:57;16.70;99.90
46652;DHT22;32377;52.182;5.398;2022-07-22T00:34:23;16.60;99.90
46652;DHT22;32377;52.182;5.398;2022-07-22T00:36:48;16.50;99.90
46652;DHT22;32377;52.182;5.398;2022-07-22T00:39:15;16.50;99.90
46652;DHT22;32377;52.182;5.398;2022-07-22T00:41:42;16.50;99.90
46652;DHT22;32377;52.182;5.398;2022-07-22T00:44:08;16.60;99.90
46652;DHT22;32377;52.182;5.398;2022-07-22T00:46:35;16.50;99.90
46652;DHT22;32377;52.182;5.398;2022-07-22T00:49:04;16.50;99.90
46652;DHT22;32377;52.182;5.398;2022-07-22T00:51:30;16.60;99.90
46652;DHT22;32377;52.182;5.398;2022-07-22T00:53:57;16.60;99.90
46652;DHT22;32377;52.182;5.398;2022-07-22T00:56:24;16.60;99.90
46652;DHT22;32377;52.182;5.398;2022-07-22T00:58:52;16.60;99.90
46652;DHT22;32377;52.182;5.398;2022-07-22T01:01:18;16.60;99.90
46652;DHT22;32377;52.182;5.398;2022-07-22T01:03:44;16.60;99.90
46652;DHT22;32377;52.182;5.398;2022-07-22T01:06:10;16.60;99.90
46652;DHT22;32377;52.182;5.398;2022-07-22T01:08:37;16.70;99.90
46652;DHT22;32377;52.182;5.398;2022-07-22T01:11:11;16.60;99.90
46652;DHT22;32377;52.182;5.398;2022-07-22T01:13:37;16.60;99.90
46652;DHT22;32377;52.182;5.398;2022-07-22T01:16:04;16.70;99.90
46652;DHT22;32377;52.182;5.398;2022-07-22T01:18:30;16.70;99.90
46652;DHT22;32377;52.182;5.398;2022-07-22T01:20:56;16.70;99.90
46652;DHT22;32377;52.182;5.398;2022-07-22T01:23:22;16.70;99.90
46652;DHT22;32377;52.182;5.398;2022-07-22T01:25:47;16.70;99.90
46652;DHT22;32377;52.182;5.398;2022-07-22T01:28:13;16.70;99.90
46652;DHT22;32377;52.182;5.398;2022-07-22T01:30:38;16.70;99.90
46652;DHT22;32377;52.182;5.398;2022-07-22T01:33:04;16.70;99.90
46652;DHT22;32377;52.182;5.398;2022-07-22T01:35:30;16.60;99.90
46652;DHT22;32377;52.182;5.398;2022-07-22T01:37:55;16.70;99.90
46652;DHT22;32377;52.182;5.398;2022-07-22T01:40:21;16.70;99.90
46652;DHT22;32377;52.182;5.398;2022-07-22T01:42:47;16.70;99.90
46652;DHT22;32377;52.182;5.398;2022-07-22T01:45:12;16.70;99.90
46652;DHT22;32377;52.182;5.398;2022-07-22T01:47:38;16.60;99.90
46652;DHT22;32377;52.182;5.398;2022-07-22T01:50:05;16.60;99.90
46652;DHT22;32377;52.182;5.398;2022-07-22T01:52:31;16.60;99.90
46652;DHT22;32377;52.182;5.398;2022-07-22T01:54:57;16.60;99.90
46652;DHT22;32377;52.182;5.398;2022-07-22T01:57:22;16.60;99.90
46652;DHT22;32377;52.182;5.398;2022-07-22T01:59:48;16.60;99.90
46652;DHT22;32377;52.182;5.398;2022-07-22T02:02:14;16.60;99.90
46652;DHT22;32377;52.182;5.398;2022-07-22T02:04:39;16.60;99.90
46652;DHT22;32377;52.182;5.398;2022-07-22T02:07:05;16.60;99.90
46652;DHT22;32377;52.182;5.398;2022-07-22T02:09:30;16.60;99.90
46652;DHT22;32377;52.182;5.398;2022-07-22T02:11:56;16.60;99.90
46652;DHT22;32377;52.182;5.398;2022-07-22T02:14:21;16.60;99.90
46652;DHT22;32377;52.182;5.398;2022-07-22T02:16:47;16.60;99.90
46652;DHT22;32377;52.182;5.398;2022-07-22T02:19:12;16.60;99.90
46652;DHT22;32377;52.182;5.398;2022-07-22T02:21:38;16.60;99.90
46652;DHT22;32377;52.182;5.398;2022-07-22T02:24:04;16.60;99.90
46652;DHT22;32377;52.182;5.398;2022-07-22T02:26:30;16.60;99.90
46652;DHT22;32377;52.182;5.398;2022-07-22T02:28:56;16.60;99.90
46652;DHT22;32377;52.182;5.398;2022-07-22T02:31:21;16.70;99.90
46652;DHT22;32377;52.182;5.398;2022-07-22T02:33:47;16.70;99.90
46652;DHT22;32377;52.182;5.398;2022-07-22T02:36:12;16.60;99.90
46652;DHT22;32377;52.182;5.398;2022-07-22T02:38:38;16.60;99.90
46652;DHT22;32377;52.182;5.398;2022-07-22T02:41:04;16.70;99.90
46652;DHT22;32377;52.182;5.398;2022-07-22T02:43:30;16.60;99.90
46652;DHT22;32377;52.182;5.398;2022-07-22T02:45:55;16.60;99.90
46652;DHT22;32377;52.182;5.398;2022-07-22T02:48:21;16.60;99.90
46652;DHT22;32377;52.182;5.398;2022-07-22T02:50:47;16.60;99.90
46652;DHT22;32377;52.182;5.398;2022-07-22T02:53:13;16.60;99.90
46652;DHT22;32377;52.182;5.398;2022-07-22T02:55:39;16.60;99.90
46652;DHT22;32377;52.182;5.398;2022-07-22T02:58:05;16.60;99.90
46652;DHT22;32377;52.182;5.398;2022-07-22T03:00:31;16.60;99.90
46652;DHT22;32377;52.182;5.398;2022-07-22T03:02:57;16.60;99.90
46652;DHT22;32377;52.182;5.398;2022-07-22T03:05:22;16.60;99.90
46652;DHT22;32377;52.182;5.398;2022-07-22T03:07:48;16.60;99.90
46652;DHT22;32377;52.182;5.398;2022-07-22T03:10:13;16.60;99.90
46652;DHT22;32377;52.182;5.398;2022-07-22T03:12:39;16.60;99.90
46652;DHT22;32377;52.182;5.398;2022-07-22T03:15:05;16.60;99.90
46652;DHT22;32377;52.182;5.398;2022-07-22T03:17:35;16.60;99.90
46652;DHT22;32377;52.182;5.398;2022-07-22T03:20:05;16.60;99.90
46652;DHT22;32377;52.182;5.398;2022-07-22T03:22:31;16.60;99.90
46652;DHT22;32377;52.182;5.398;2022-07-22T03:24:58;16.60;99.90
46652;DHT22;32377;52.182;5.398;2022-07-22T03:27:23;16.60;99.90
46652;DHT22;32377;52.182;5.398;2022-07-22T03:29:49;16.60;99.90
46652;DHT22;32377;52.182;5.398;2022-07-22T03:32:14;16.60;99.90
46652;DHT22;32377;52.182;5.398;2022-07-22T03:34:40;16.60;99.90
46652;DHT22;32377;52.182;5.398;2022-07-22T03:37:05;16.60;99.90
46652;DHT22;32377;52.182;5.398;2022-07-22T03:39:31;16.60;99.90
46652;DHT22;32377;52.182;5.398;2022-07-22T03:41:57;16.60;99.90
46652;DHT22;32377;52.182;5.398;2022-07-22T03:44:22;16.60;99.90
46652;DHT22;32377;52.182;5.398;2022-07-22T03:46:48;16.60;99.90
46652;DHT22;32377;52.182;5.398;2022-07-22T03:49:13;16.50;99.90
46652;DHT22;32377;52.182;5.398;2022-07-22T03:51:39;16.60;99.90
46652;DHT22;32377;52.182;5.398;2022-07-22T03:54:05;16.60;99.90
46652;DHT22;32377;52.182;5.398;2022-07-22T03:56:31;16.60;99.90
46652;DHT22;32377;52.182;5.398;2022-07-22T03:58:56;16.60;99.90
46652;DHT22;32377;52.182;5.398;2022-07-22T04:01:22;16.60;99.90
46652;DHT22;32377;52.182;5.398;2022-07-22T04:03:48;16.60;99.90
46652;DHT22;32377;52.182;5.398;2022-07-22T04:06:14;16.60;99.90
46652;DHT22;32377;52.182;5.398;2022-07-22T04:08:40;16.60;99.90
46652;DHT22;32377;52.182;5.398;2022-07-22T04:11:06;16.70;99.90
46652;DHT22;32377;52.182;5.398;2022-07-22T04:13:31;16.60;99.90
46652;DHT22;32377;52.182;5.398;2022-07-22T04:15:57;16.60;99.90
46652;DHT22;32377;52.182;5.398;2022-07-22T04:18:22;16.60;99.90
46652;DHT22;32377;52.182;5.398;2022-07-22T04:20:48;16.60;99.90
46652;DHT22;32377;52.182;5.398;2022-07-22T04:23:14;16.50;99.90
46652;DHT22;32377;52.182;5.398;2022-07-22T04:25:39;16.60;99.90
46652;DHT22;32377;52.182;5.398;2022-07-22T04:28:06;16.70;99.90
46652;DHT22;32377;52.182;5.398;2022-07-22T04:30:31;16.70;99.90
46652;DHT22;32377;52.182;5.398;2022-07-22T04:32:57;16.70;99.90
46652;DHT22;32377;52.182;5.398;2022-07-22T04:35:24;16.70;99.90
46652;DHT22;32377;52.182;5.398;2022-07-22T04:37:49;16.70;99.90
46652;DHT22;32377;52.182;5.398;2022-07-22T04:40:15;16.80;99.90
46652;DHT22;32377;52.182;5.398;2022-07-22T04:42:41;16.80;99.90
46652;DHT22;32377;52.182;5.398;2022-07-22T04:45:06;16.80;99.90
46652;DHT22;32377;52.182;5.398;2022-07-22T04:47:32;16.80;99.90
46652;DHT22;32377;52.182;5.398;2022-07-22T04:49:58;16.80;99.90
46652;DHT22;32377;52.182;5.398;2022-07-22T04:52:23;16.80;99.90
46652;DHT22;32377;52.182;5.398;2022-07-22T04:54:49;16.90;99.90
46652;DHT22;32377;52.182;5.398;2022-07-22T04:57:14;16.80;99.90
46652;DHT22;32377;52.182;5.398;2022-07-22T04:59:40;16.80;99.90
46652;DHT22;32377;52.182;5.398;2022-07-22T05:02:05;16.90;99.90
46652;DHT22;32377;52.182;5.398;2022-07-22T05:04:31;16.90;99.90
46652;DHT22;32377;52.182;5.398;2022-07-22T05:06:57;16.90;99.90
46652;DHT22;32377;52.182;5.398;2022-07-22T05:09:23;17.00;99.90
46652;DHT22;32377;52.182;5.398;2022-07-22T05:11:48;17.10;99.90
46652;DHT22;32377;52.182;5.398;2022-07-22T05:14:14;17.10;99.90
46652;DHT22;32377;52.182;5.398;2022-07-22T05:16:39;17.10;99.90
46652;DHT22;32377;52.182;5.398;2022-07-22T05:19:05;17.10;99.90
46652;DHT22;32377;52.182;5.398;2022-07-22T05:21:32;17.20;99.90
46652;DHT22;32377;52.182;5.398;2022-07-22T05:23:58;17.10;99.90
46652;DHT22;32377;52.182;5.398;2022-07-22T05:26:23;17.10;99.90
46652;DHT22;32377;52.182;5.398;2022-07-22T05:28:50;17.10;99.90
46652;DHT22;32377;52.182;5.398;2022-07-22T05:31:15;17.10;99.90
46652;DHT22;32377;52.182;5.398;2022-07-22T05:33:41;17.20;99.90
46652;DHT22;32377;52.182;5.398;2022-07-22T05:36:07;17.20;99.90
46652;DHT22;32377;52.182;5.398;2022-07-22T05:38:35;17.30;99.90
46652;DHT22;32377;52.182;5.398;2022-07-22T05:41:01;17.30;99.90
46652;DHT22;32377;52.182;5.398;2022-07-22T05:43:27;17.40;99.90
46652;DHT22;32377;52.182;5.398;2022-07-22T05:45:53;17.40;99.90
46652;DHT22;32377;52.182;5.398;2022-07-22T05:48:18;17.40;99.90
46652;DHT22;32377;52.182;5.398;2022-07-22T05:50:44;17.40;99.90
46652;DHT22;32377;52.182;5.398;2022-07-22T05:53:10;17.40;99.90
46652;DHT22;32377;52.182;5.398;2022-07-22T05:55:35;17.40;99.90
46652;DHT22;32377;52.182;5.398;2022-07-22T05:58:01;17.40;99.90
46652;DHT22;32377;52.182;5.398;2022-07-22T06:00:27;17.40;99.90
46652;DHT22;32377;52.182;5.398;2022-07-22T06:02:52;17.40;99.90
46652;DHT22;32377;52.182;5.398;2022-07-22T06:05:18;17.40;99.90
46652;DHT22;32377;52.182;5.398;2022-07-22T06:07:44;17.30;99.90
46652;DHT22;32377;52.182;5.398;2022-07-22T06:10:09;17.40;99.90
46652;DHT22;32377;52.182;5.398;2022-07-22T06:12:35;17.40;99.90
46652;DHT22;32377;52.182;5.398;2022-07-22T06:15:00;17.30;99.90
46652;DHT22;32377;52.182;5.398;2022-07-22T06:17:26;17.40;99.90
46652;DHT22;32377;52.182;5.398;2022-07-22T06:19:51;17.40;99.90
46652;DHT22;32377;52.182;5.398;2022-07-22T06:22:17;17.40;99.90
46652;DHT22;32377;52.182;5.398;2022-07-22T06:24:44;17.40;99.90
46652;DHT22;32377;52.182;5.398;2022-07-22T06:27:10;17.40;99.90
46652;DHT22;32377;52.182;5.398;2022-07-22T06:29:36;17.40;99.90
46652;DHT22;32377;52.182;5.398;2022-07-22T06:32:01;17.50;99.90
46652;DHT22;32377;52.182;5.398;2022-07-22T06:34:27;17.50;99.90
46652;DHT22;32377;52.182;5.398;2022-07-22T06:36:53;17.50;99.90
46652;DHT22;32377;52.182;5.398;2022-07-22T06:39:18;17.60;99.90
46652;DHT22;32377;52.182;5.398;2022-07-22T06:41:44;17.60;99.90
46652;DHT22;32377;52.182;5.398;2022-07-22T06:44:09;17.70;99.90
46652;DHT22;32377;52.182;5.398;2022-07-22T06:46:35;17.60;99.90
46652;DHT22;32377;52.182;5.398;2022-07-22T06:49:01;17.70;99.90
46652;DHT22;32377;52.182;5.398;2022-07-22T06:51:26;17.70;99.90
46652;DHT22;32377;52.182;5.398;2022-07-22T06:53:52;17.70;99.90
46652;DHT22;32377;52.182;5.398;2022-07-22T06:56:18;17.70;99.90
46652;DHT22;32377;52.182;5.398;2022-07-22T06:58:43;17.80;99.90
46652;DHT22;32377;52.182;5.398;2022-07-22T07:01:09;17.90;99.90
46652;DHT22;32377;52.182;5.398;2022-07-22T07:03:35;18.00;99.90
46652;DHT22;32377;52.182;5.398;2022-07-22T07:06:00;18.00;99.90
46652;DHT22;32377;52.182;5.398;2022-07-22T07:08:26;18.10;99.90
46652;DHT22;32377;52.182;5.398;2022-07-22T07:10:51;18.10;99.90
46652;DHT22;32377;52.182;5.398;2022-07-22T07:13:17;18.10;99.90
46652;DHT22;32377;52.182;5.398;2022-07-22T07:15:43;18.00;99.90
46652;DHT22;32377;52.182;5.398;2022-07-22T07:18:09;18.00;99.90
46652;DHT22;32377;52.182;5.398;2022-07-22T07:20:34;18.10;99.90
46652;DHT22;32377;52.182;5.398;2022-07-22T07:23:00;18.10;99.90
46652;DHT22;32377;52.182;5.398;2022-07-22T07:25:27;18.20;99.90
46652;DHT22;32377;52.182;5.398;2022-07-22T07:27:53;18.20;99.90
46652;DHT22;32377;52.182;5.398;2022-07-22T07:30:18;18.30;99.90
46652;DHT22;32377;52.182;5.398;2022-07-22T07:32:44;18.40;99.90
46652;DHT22;32377;52.182;5.398;2022-07-22T07:35:10;18.40;99.90
46652;DHT22;32377;52.182;5.398;2022-07-22T07:37:36;18.50;99.90
46652;DHT22;32377;52.182;5.398;2022-07-22T07:40:03;18.60;99.90
46652;DHT22;32377;52.182;5.398;2022-07-22T07:42:29;18.60;99.90
46652;DHT22;32377;52.182;5.398;2022-07-22T07:44:54;18.60;99.90
46652;DHT22;32377;52.182;5.398;2022-07-22T07:47:21;18.60;99.90
46652;DHT22;32377;52.182;5.398;2022-07-22T07:49:48;18.40;99.90
46652;DHT22;32377;52.182;5.398;2022-07-22T07:52:14;18.30;99.90
46652;DHT22;32377;52.182;5.398;2022-07-22T07:54:40;18.20;99.90
46652;DHT22;32377;52.182;5.398;2022-07-22T07:57:07;18.20;99.90
46652;DHT22;32377;52.182;5.398;2022-07-22T07:59:32;18.10;99.90
46652;DHT22;32377;52.182;5.398;2022-07-22T08:01:58;18.00;99.90
46652;DHT22;32377;52.182;5.398;2022-07-22T08:04:23;18.10;99.90
46652;DHT22;32377;52.182;5.398;2022-07-22T08:06:49;18.10;99.90
46652;DHT22;32377;52.182;5.398;2022-07-22T08:09:15;18.20;99.90
46652;DHT22;32377;52.182;5.398;2022-07-22T08:11:40;18.10;99.90
46652;DHT22;32377;52.182;5.398;2022-07-22T08:14:06;18.10;99.90
46652;DHT22;32377;52.182;5.398;2022-07-22T08:16:31;18.10;99.90
46652;DHT22;32377;52.182;5.398;2022-07-22T08:18:57;18.20;99.90
46652;DHT22;32377;52.182;5.398;2022-07-22T08:21:22;18.20;99.90
46652;DHT22;32377;52.182;5.398;2022-07-22T08:23:48;18.20;99.90
46652;DHT22;32377;52.182;5.398;2022-07-22T08:26:14;18.30;99.90
46652;DHT22;32377;52.182;5.398;2022-07-22T08:28:39;18.50;99.90
46652;DHT22;32377;52.182;5.398;2022-07-22T08:31:05;18.70;99.90
46652;DHT22;32377;52.182;5.398;2022-07-22T08:33:30;18.80;99.90
46652;DHT22;32377;52.182;5.398;2022-07-22T08:35:56;19.00;99.90
46652;DHT22;32377;52.182;5.398;2022-07-22T08:38:21;19.10;99.90
46652;DHT22;32377;52.182;5.398;2022-07-22T08:40:48;19.20;99.90
46652;DHT22;32377;52.182;5.398;2022-07-22T08:43:14;19.20;99.90
46652;DHT22;32377;52.182;5.398;2022-07-22T08:45:40;19.10;99.90
46652;DHT22;32377;52.182;5.398;2022-07-22T08:48:06;19.10;99.90
46652;DHT22;32377;52.182;5.398;2022-07-22T08:50:32;19.20;99.90
46652;DHT22;32377;52.182;5.398;2022-07-22T08:52:57;18.90;99.90
46652;DHT22;32377;52.182;5.398;2022-07-22T08:55:23;18.90;99.90
46652;DHT22;32377;52.182;5.398;2022-07-22T08:57:49;19.00;99.90
46652;DHT22;32377;52.182;5.398;2022-07-22T09:00:19;19.00;99.90
46652;DHT22;32377;52.182;5.398;2022-07-22T09:02:45;18.90;99.90
46652;DHT22;32377;52.182;5.398;2022-07-22T09:05:12;19.00;99.90
46652;DHT22;32377;52.182;5.398;2022-07-22T09:07:43;19.10;99.90
46652;DHT22;32377;52.182;5.398;2022-07-22T09:10:18;19.10;99.90
46652;DHT22;32377;52.182;5.398;2022-07-22T09:12:58;19.10;99.90
46652;DHT22;32377;52.182;5.398;2022-07-22T09:15:36;19.00;99.90
46652;DHT22;32377;52.182;5.398;2022-07-22T09:18:03;19.30;99.90
46652;DHT22;32377;52.182;5.398;2022-07-22T09:20:30;19.50;99.90
46652;DHT22;32377;52.182;5.398;2022-07-22T09:22:56;19.40;99.90
46652;DHT22;32377;52.182;5.398;2022-07-22T09:25:30;19.60;99.90
46652;DHT22;32377;52.182;5.398;2022-07-22T09:30:31;19.70;99.90
46652;DHT22;32377;52.182;5.398;2022-07-22T09:32:57;19.70;99.90
46652;DHT22;32377;52.182;5.398;2022-07-22T09:35:22;19.70;99.90
46652;DHT22;32377;52.182;5.398;2022-07-22T09:37:56;20.00;99.90
46652;DHT22;32377;52.182;5.398;2022-07-22T09:40:24;20.10;99.90
46652;DHT22;32377;52.182;5.398;2022-07-22T09:42:53;20.10;99.90
46652;DHT22;32377;52.182;5.398;2022-07-22T09:45:20;20.00;99.90
46652;DHT22;32377;52.182;5.398;2022-07-22T09:47:46;20.00;99.90
46652;DHT22;32377;52.182;5.398;2022-07-22T09:50:22;20.00;99.90
46652;DHT22;32377;52.182;5.398;2022-07-22T09:52:50;20.10;99.90
46652;DHT22;32377;52.182;5.398;2022-07-22T09:55:19;20.20;99.90
46652;DHT22;32377;52.182;5.398;2022-07-22T09:57:45;20.30;99.90
46652;DHT22;32377;52.182;5.398;2022-07-22T10:00:12;20.20;99.90
46652;DHT22;32377;52.182;5.398;2022-07-22T10:02:46;20.20;99.90
46652;DHT22;32377;52.182;5.398;2022-07-22T10:05:13;20.50;99.90
46652;DHT22;32377;52.182;5.398;2022-07-22T10:07:41;20.50;99.90
46652;DHT22;32377;52.182;5.398;2022-07-22T10:10:07;20.60;99.90
46652;DHT22;32377;52.182;5.398;2022-07-22T10:12:34;20.70;99.90
46652;DHT22;32377;52.182;5.398;2022-07-22T10:15:01;20.70;99.90
46652;DHT22;32377;52.182;5.398;2022-07-22T10:17:27;20.50;99.90
46652;DHT22;32377;52.182;5.398;2022-07-22T10:19:53;20.40;99.90
46652;DHT22;32377;52.182;5.398;2022-07-22T10:25:12;20.80;99.90
46652;DHT22;32377;52.182;5.398;2022-07-22T10:30:27;20.80;99.90
46652;DHT22;32377;52.182;5.398;2022-07-22T10:35:52;20.60;99.90
46652;DHT22;32377;52.182;5.398;2022-07-22T10:38:18;20.80;99.90
46652;DHT22;32377;52.182;5.398;2022-07-22T10:40:52;21.00;99.90
46652;DHT22;32377;52.182;5.398;2022-07-22T10:43:23;21.20;99.90
46652;DHT22;32377;52.182;5.398;2022-07-22T10:45:55;21.40;99.90
46652;DHT22;32377;52.182;5.398;2022-07-22T10:53:47;20.80;99.90
46652;DHT22;32377;52.182;5.398;2022-07-22T10:56:27;21.00;99.90
46652;DHT22;32377;52.182;5.398;2022-07-22T10:58:57;21.30;99.90
46652;DHT22;32377;52.182;5.398;2022-07-22T11:01:25;21.30;99.90
46652;DHT22;32377;52.182;5.398;2022-07-22T11:03:52;21.60;99.90
46652;DHT22;32377;52.182;5.398;2022-07-22T11:06:20;21.60;99.90
46652;DHT22;32377;52.182;5.398;2022-07-22T11:08:49;21.60;99.90
46652;DHT22;32377;52.182;5.398;2022-07-22T11:11:15;21.90;99.90
46652;DHT22;32377;52.182;5.398;2022-07-22T11:13:42;21.80;99.90
46652;DHT22;32377;52.182;5.398;2022-07-22T11:21:19;21.60;99.90
46652;DHT22;32377;52.182;5.398;2022-07-22T11:23:47;21.60;99.90
46652;DHT22;32377;52.182;5.398;2022-07-22T11:26:15;21.70;99.90
46652;DHT22;32377;52.182;5.398;2022-07-22T11:28:43;21.80;99.90
46652;DHT22;32377;52.182;5.398;2022-07-22T11:31:10;21.80;99.90
46652;DHT22;32377;52.182;5.398;2022-07-22T11:33:38;21.90;99.90
46652;DHT22;32377;52.182;5.398;2022-07-22T11:36:06;21.50;99.90
46652;DHT22;32377;52.182;5.398;2022-07-22T11:38:50;20.90;99.90
46652;DHT22;32377;52.182;5.398;2022-07-22T11:41:18;21.00;99.90
46652;DHT22;32377;52.182;5.398;2022-07-22T11:43:48;21.30;99.90
46652;DHT22;32377;52.182;5.398;2022-07-22T11:46:16;21.20;99.90
46652;DHT22;32377;52.182;5.398;2022-07-22T11:48:43;21.50;99.90
46652;DHT22;32377;52.182;5.398;2022-07-22T11:51:11;21.60;99.90
46652;DHT22;32377;52.182;5.398;2022-07-22T11:53:38;21.70;99.90
46652;DHT22;32377;52.182;5.398;2022-07-22T11:56:05;21.90;99.90
46652;DHT22;32377;52.182;5.398;2022-07-22T11:58:36;22.00;99.90
46652;DHT22;32377;52.182;5.398;2022-07-22T12:01:04;22.00;99.90
46652;DHT22;32377;52.182;5.398;2022-07-22T12:03:30;22.20;99.90
46652;DHT22;32377;52.182;5.398;2022-07-22T12:05:56;22.20;99.90
46652;DHT22;32377;52.182;5.398;2022-07-22T12:08:22;21.90;99.90
46652;DHT22;32377;52.182;5.398;2022-07-22T12:10:47;21.80;99.90
46652;DHT22;32377;52.182;5.398;2022-07-22T12:13:13;21.70;99.90
46652;DHT22;32377;52.182;5.398;2022-07-22T12:15:39;21.90;99.90
46652;DHT22;32377;52.182;5.398;2022-07-22T12:18:18;22.20;99.90
46652;DHT22;32377;52.182;5.398;2022-07-22T12:20:46;21.90;99.90
46652;DHT22;32377;52.182;5.398;2022-07-22T12:23:12;21.90;99.90
46652;DHT22;32377;52.182;5.398;2022-07-22T12:25:59;21.90;99.90
46652;DHT22;32377;52.182;5.398;2022-07-22T12:28:25;21.80;99.90
46652;DHT22;32377;52.182;5.398;2022-07-22T12:30:53;21.70;99.90
46652;DHT22;32377;52.182;5.398;2022-07-22T12:33:20;21.70;99.90
46652;DHT22;32377;52.182;5.398;2022-07-22T12:36:06;22.00;99.90
46652;DHT22;32377;52.182;5.398;2022-07-22T12:38:33;22.10;99.90
46652;DHT22;32377;52.182;5.398;2022-07-22T12:41:24;21.90;99.90
46652;DHT22;32377;52.182;5.398;2022-07-22T12:43:51;21.80;99.90
46652;DHT22;32377;52.182;5.398;2022-07-22T12:46:17;22.00;99.90
46652;DHT22;32377;52.182;5.398;2022-07-22T12:48:53;22.10;99.90
46652;DHT22;32377;52.182;5.398;2022-07-22T12:51:19;22.30;99.90
46652;DHT22;32377;52.182;5.398;2022-07-22T12:53:45;22.50;99.90
46652;DHT22;32377;52.182;5.398;2022-07-22T12:56:10;22.30;99.90
46652;DHT22;32377;52.182;5.398;2022-07-22T12:58:37;22.10;99.90
46652;DHT22;32377;52.182;5.398;2022-07-22T13:01:05;22.10;99.90
46652;DHT22;32377;52.182;5.398;2022-07-22T13:03:31;22.20;99.90
46652;DHT22;32377;52.182;5.398;2022-07-22T13:06:00;22.10;99.90
46652;DHT22;32377;52.182;5.398;2022-07-22T13:08:28;22.30;99.90
46652;DHT22;32377;52.182;5.398;2022-07-22T13:10:53;22.40;99.90
46652;DHT22;32377;52.182;5.398;2022-07-22T13:13:21;22.20;99.90
46652;DHT22;32377;52.182;5.398;2022-07-22T13:15:47;22.50;99.90
46652;DHT22;32377;52.182;5.398;2022-07-22T13:18:13;22.50;99.90
46652;DHT22;32377;52.182;5.398;2022-07-22T13:20:39;22.50;99.90
46652;DHT22;32377;52.182;5.398;2022-07-22T13:23:05;22.10;99.90
46652;DHT22;32377;52.182;5.398;2022-07-22T13:25:31;22.00;99.90
46652;DHT22;32377;52.182;5.398;2022-07-22T13:27:58;22.00;99.90
46652;DHT22;32377;52.182;5.398;2022-07-22T13:30:24;21.90;99.90
46652;DHT22;32377;52.182;5.398;2022-07-22T13:32:49;22.10;99.90
46652;DHT22;32377;52.182;5.398;2022-07-22T13:35:16;22.20;99.90
46652;DHT22;32377;52.182;5.398;2022-07-22T13:37:42;22.20;99.90
46652;DHT22;32377;52.182;5.398;2022-07-22T13:40:08;22.30;99.90
46652;DHT22;32377;52.182;5.398;2022-07-22T13:42:33;22.30;99.90
46652;DHT22;32377;52.182;5.398;2022-07-22T13:44:59;22.40;99.90
46652;DHT22;32377;52.182;5.398;2022-07-22T13:47:24;22.30;99.90
46652;DHT22;32377;52.182;5.398;2022-07-22T13:49:52;22.40;99.90
46652;DHT22;32377;52.182;5.398;2022-07-22T13:52:18;22.20;99.90
46652;DHT22;32377;52.182;5.398;2022-07-22T13:54:44;22.20;99.90
46652;DHT22;32377;52.182;5.398;2022-07-22T13:57:10;22.30;99.90
46652;DHT22;32377;52.182;5.398;2022-07-22T13:59:36;22.30;99.90
46652;DHT22;32377;52.182;5.398;2022-07-22T14:02:02;22.20;99.90
46652;DHT22;32377;52.182;5.398;2022-07-22T14:04:28;22.10;99.90
46652;DHT22;32377;52.182;5.398;2022-07-22T14:06:53;22.10;99.90
46652;DHT22;32377;52.182;5.398;2022-07-22T14:09:19;22.20;99.90
46652;DHT22;32377;52.182;5.398;2022-07-22T14:11:45;22.30;99.90
46652;DHT22;32377;52.182;5.398;2022-07-22T14:14:10;22.50;99.90
46652;DHT22;32377;52.182;5.398;2022-07-22T14:16:36;22.50;99.90
46652;DHT22;32377;52.182;5.398;2022-07-22T14:19:10;22.30;99.90
46652;DHT22;32377;52.182;5.398;2022-07-22T14:21:37;22.20;99.90
46652;DHT22;32377;52.182;5.398;2022-07-22T14:24:05;22.00;99.90
46652;DHT22;32377;52.182;5.398;2022-07-22T14:26:31;22.00;99.90
46652;DHT22;32377;52.182;5.398;2022-07-22T14:28:56;22.00;99.90
46652;DHT22;32377;52.182;5.398;2022-07-22T14:31:22;22.20;99.90
46652;DHT22;32377;52.182;5.398;2022-07-22T14:33:48;22.10;99.90
46652;DHT22;32377;52.182;5.398;2022-07-22T14:36:14;22.20;99.90
46652;DHT22;32377;52.182;5.398;2022-07-22T14:38:39;21.90;99.90
46652;DHT22;32377;52.182;5.398;2022-07-22T14:41:05;22.20;99.90
46652;DHT22;32377;52.182;5.398;2022-07-22T14:43:35;22.40;99.90
46652;DHT22;32377;52.182;5.398;2022-07-22T14:46:02;22.50;99.90
46652;DHT22;32377;52.182;5.398;2022-07-22T14:48:30;22.20;99.90
46652;DHT22;32377;52.182;5.398;2022-07-22T14:50:55;22.20;99.90
46652;DHT22;32377;52.182;5.398;2022-07-22T14:53:21;22.10;99.90
46652;DHT22;32377;52.182;5.398;2022-07-22T14:55:47;21.90;99.90
46652;DHT22;32377;52.182;5.398;2022-07-22T14:58:12;22.10;99.90
46652;DHT22;32377;52.182;5.398;2022-07-22T15:00:38;22.00;99.90
46652;DHT22;32377;52.182;5.398;2022-07-22T15:03:03;21.80;99.90
46652;DHT22;32377;52.182;5.398;2022-07-22T15:05:29;21.80;99.90
46652;DHT22;32377;52.182;5.398;2022-07-22T15:07:55;22.00;99.90
46652;DHT22;32377;52.182;5.398;2022-07-22T15:10:20;22.10;99.90
46652;DHT22;32377;52.182;5.398;2022-07-22T15:12:46;22.00;99.90
46652;DHT22;32377;52.182;5.398;2022-07-22T15:15:11;22.00;99.90
46652;DHT22;32377;52.182;5.398;2022-07-22T15:17:38;21.90;99.90
46652;DHT22;32377;52.182;5.398;2022-07-22T15:20:05;21.80;99.90
46652;DHT22;32377;52.182;5.398;2022-07-22T15:22:31;21.90;99.90
46652;DHT22;32377;52.182;5.398;2022-07-22T15:24:57;22.00;99.90
46652;DHT22;32377;52.182;5.398;2022-07-22T15:27:23;21.90;99.90
46652;DHT22;32377;52.182;5.398;2022-07-22T15:29:49;21.70;99.90
46652;DHT22;32377;52.182;5.398;2022-07-22T15:32:15;21.70;99.90
46652;DHT22;32377;52.182;5.398;2022-07-22T15:34:42;21.70;99.90
46652;DHT22;32377;52.182;5.398;2022-07-22T15:37:07;21.70;99.90
46652;DHT22;32377;52.182;5.398;2022-07-22T15:39:33;21.70;99.90
46652;DHT22;32377;52.182;5.398;2022-07-22T15:41:59;21.80;99.90
46652;DHT22;32377;52.182;5.398;2022-07-22T15:44:25;21.70;99.90
46652;DHT22;32377;52.182;5.398;2022-07-22T15:46:50;21.80;99.90